Time;durP1;ratioP1;P1;durP2;ratioP2;P2;SDS_P1;SDS_P2;PMS_P1;PMS_P2;Temp;Humidity;BMP_temperature;BMP_pressure;BME280_temperature;BME280_humidity;BME280_pressure;Samples;Min_cycle;Max_cycle;Signal;HPM_P1;HPM_P2
2022/04/25 00:01:18;;;;;;;6.63;2.90;;;22.40;56.60;;;;;;4948601;29;20031;-74
2022/04/25 00:03:44;;;;;;;7.25;3.00;;;22.40;56.60;;;;;;4947584;29;20023;-75
2022/04/25 00:06:11;;;;;;;9.48;2.63;;;22.40;56.70;;;;;;4950780;29;20028;-74
2022/04/25 00:08:37;;;;;;;13.82;2.75;;;22.40;56.60;;;;;;4949477;29;20038;-75
2022/04/25 00:11:03;;;;;;;10.55;3.40;;;22.40;56.60;;;;;;4950899;28;20114;-75
2022/04/25 00:13:29;;;;;;;8.35;3.08;;;22.40;56.60;;;;;;4947173;29;20158;-74
2022/04/25 00:15:55;;;;;;;7.68;3.10;;;22.40;56.60;;;;;;4950615;28;20403;-75
2022/04/25 00:18:21;;;;;;;7.43;3.00;;;22.40;56.60;;;;;;4955608;29;20036;-75
2022/04/25 00:21:11;;;;;;;9.30;3.13;;;22.40;56.50;;;;;;4956951;28;20039;-75
2022/04/25 00:23:57;;;;;;;9.00;3.15;;;22.40;56.50;;;;;;4951408;28;20043;-76
2022/04/25 00:26:23;;;;;;;8.20;2.90;;;22.40;56.40;;;;;;4955279;28;20029;-75
2022/04/25 00:28:49;;;;;;;8.30;3.15;;;22.40;56.50;;;;;;4955312;29;20110;-74
2022/04/25 00:31:15;;;;;;;7.10;2.88;;;22.40;56.50;;;;;;4955079;29;20027;-76
2022/04/25 00:34:12;;;;;;;5.10;2.72;;;22.40;56.50;;;;;;4948728;29;20440;-75
2022/04/25 00:36:38;;;;;;;9.00;2.70;;;22.40;56.60;;;;;;4953558;29;20027;-76
2022/04/25 00:39:04;;;;;;;8.60;2.53;;;22.40;56.60;;;;;;4956281;28;20035;-75
2022/04/25 00:41:30;;;;;;;8.25;3.08;;;22.40;56.50;;;;;;4952498;29;20034;-76
2022/04/25 00:43:57;;;;;;;7.53;2.80;;;22.40;56.40;;;;;;4952575;29;20047;-75
2022/04/25 00:46:28;;;;;;;7.78;2.92;;;22.40;56.40;;;;;;4956466;28;20159;-76
2022/04/25 00:48:54;;;;;;;10.60;2.80;;;22.40;56.40;;;;;;4939305;29;20035;-76
2022/04/25 00:51:21;;;;;;;13.75;2.80;;;22.40;56.40;;;;;;4955224;29;20031;-75
2022/04/25 00:53:48;;;;;;;7.68;2.92;;;22.40;56.40;;;;;;4945461;29;20027;-74
2022/04/25 00:56:16;;;;;;;7.65;2.80;;;22.40;56.40;;;;;;4953404;28;20440;-73
2022/04/25 00:58:45;;;;;;;9.25;2.85;;;22.40;56.40;;;;;;4939187;29;20039;-75
2022/04/25 01:01:24;;;;;;;9.95;2.95;;;22.30;56.40;;;;;;4955323;28;20034;-77
2022/04/25 01:03:50;;;;;;;9.93;2.30;;;22.40;56.60;;;;;;4954624;28;20448;-76
2022/04/25 01:06:16;;;;;;;8.80;2.80;;;22.40;56.50;;;;;;4956112;29;20032;-75
2022/04/25 01:08:42;;;;;;;9.27;2.58;;;22.40;56.60;;;;;;4954847;28;20474;-76
2022/04/25 01:11:13;;;;;;;10.43;2.53;;;22.40;56.60;;;;;;4955736;28;20122;-76
2022/04/25 01:13:39;;;;;;;7.97;2.95;;;22.40;56.60;;;;;;4955758;28;20031;-76
2022/04/25 01:16:05;;;;;;;12.65;2.78;;;22.40;56.40;;;;;;4954831;28;20030;-76
2022/04/25 01:18:30;;;;;;;7.57;2.78;;;22.40;56.30;;;;;;4955864;29;20035;-75
2022/04/25 01:20:58;;;;;;;7.88;2.97;;;22.40;56.30;;;;;;4938562;29;20042;-75
2022/04/25 01:28:54;;;;;;;9.32;3.28;;;22.40;56.40;;;;;;4955233;28;20031;-74
2022/04/25 01:31:20;;;;;;;8.70;3.00;;;22.30;56.30;;;;;;4945672;28;20024;-75
2022/04/25 01:33:46;;;;;;;9.93;3.67;;;22.40;56.40;;;;;;4945027;29;20035;-75
2022/04/25 01:36:12;;;;;;;7.13;2.85;;;22.30;56.40;;;;;;4955076;28;20031;-75
2022/04/25 01:38:38;;;;;;;14.35;3.35;;;22.40;56.50;;;;;;4954196;29;20404;-75
2022/04/25 01:41:03;;;;;;;8.60;3.00;;;22.30;56.40;;;;;;4953911;29;20031;-75
2022/04/25 01:43:34;;;;;;;9.02;2.88;;;22.30;56.50;;;;;;4950676;29;20039;-75
2022/04/25 01:45:59;;;;;;;8.95;2.88;;;22.30;56.40;;;;;;4955009;28;20027;-75
2022/04/25 01:48:25;;;;;;;8.80;2.72;;;22.30;56.50;;;;;;4955146;29;20034;-75
2022/04/25 01:50:53;;;;;;;9.38;3.20;;;22.30;56.50;;;;;;4954916;29;20142;-76
2022/04/25 01:53:19;;;;;;;6.70;2.70;;;22.30;56.60;;;;;;4952886;28;20050;-75
2022/04/25 01:55:44;;;;;;;7.22;2.20;;;22.30;56.50;;;;;;4950882;28;20472;-75
2022/04/25 01:58:10;;;;;;;4.97;2.53;;;22.30;56.50;;;;;;4952209;29;20046;-75
2022/04/25 02:00:36;;;;;;;6.90;2.92;;;22.30;56.50;;;;;;4954784;28;20042;-75
2022/04/25 02:03:01;;;;;;;7.50;2.90;;;22.30;56.50;;;;;;4951347;28;20605;-75
2022/04/25 02:05:27;;;;;;;7.43;2.72;;;22.30;56.50;;;;;;4943607;28;20038;-75
2022/04/25 02:07:53;;;;;;;6.90;2.40;;;22.30;56.40;;;;;;4954996;28;20030;-75
2022/04/25 02:10:19;;;;;;;5.32;2.60;;;22.30;56.30;;;;;;4951355;28;20024;-75
2022/04/25 02:12:44;;;;;;;5.82;2.72;;;22.30;56.40;;;;;;4952301;29;20031;-75
2022/04/25 02:15:13;;;;;;;7.03;2.63;;;22.30;56.40;;;;;;4954327;29;20445;-75
2022/04/25 02:17:41;;;;;;;5.38;2.45;;;22.30;56.40;;;;;;4936447;29;20027;-75
2022/04/25 02:20:08;;;;;;;6.30;2.42;;;22.30;56.50;;;;;;4954202;28;20452;-75
2022/04/25 02:22:35;;;;;;;6.60;2.90;;;22.30;56.50;;;;;;4945738;29;20111;-75
2022/04/25 02:25:01;;;;;;;8.15;2.90;;;22.30;56.60;;;;;;4951398;28;20031;-75
2022/04/25 02:27:27;;;;;;;7.15;3.20;;;22.30;56.60;;;;;;4950336;29;20043;-76
2022/04/25 02:29:57;;;;;;;5.45;2.70;;;22.30;56.60;;;;;;4953331;28;20054;-75
2022/04/25 02:32:23;;;;;;;7.25;2.65;;;22.30;56.40;;;;;;4950703;29;20384;-75
2022/04/25 02:34:53;;;;;;;7.63;2.95;;;22.30;56.40;;;;;;4952232;28;20070;-75
2022/04/25 02:37:19;;;;;;;;;;;22.30;56.60;;;;;;4954431;29;20078;-75
2022/04/25 02:39:45;;;;;;;4.20;2.33;;;22.30;56.40;;;;;;4950494;28;19911;-75
2022/04/25 02:42:10;;;;;;;6.95;2.50;;;22.30;56.40;;;;;;4952145;29;20102;-75
2022/04/25 02:44:36;;;;;;;6.05;2.63;;;22.30;56.70;;;;;;4954092;28;20031;-75
2022/04/25 02:47:02;;;;;;;6.03;2.80;;;22.30;56.60;;;;;;4954026;29;20128;-75
2022/04/25 02:49:28;;;;;;;5.25;2.53;;;22.30;56.90;;;;;;4951934;29;20071;-75
2022/04/25 02:51:53;;;;;;;5.13;2.33;;;22.30;56.70;;;;;;4949102;28;20024;-75
2022/04/25 02:54:19;;;;;;;7.80;2.95;;;22.30;56.70;;;;;;4933301;29;20023;-75
2022/04/25 02:56:45;;;;;;;9.77;3.05;;;22.30;56.80;;;;;;4950003;29;20026;-75
2022/04/25 02:59:10;;;;;;;7.40;2.55;;;22.30;56.90;;;;;;4953800;28;20114;-75
2022/04/25 03:01:36;;;;;;;8.55;2.72;;;22.30;56.90;;;;;;4952500;28;20040;-75
2022/04/25 03:04:02;;;;;;;6.45;2.90;;;22.30;56.80;;;;;;4947359;29;20035;-75
2022/04/25 03:06:28;;;;;;;7.65;2.40;;;22.30;56.90;;;;;;4948822;29;20023;-75
2022/04/25 03:08:54;;;;;;;7.88;2.75;;;22.30;56.80;;;;;;4952192;29;20114;-75
2022/04/25 03:11:19;;;;;;;10.50;2.80;;;22.30;57.10;;;;;;4944304;28;20032;-75
2022/04/25 03:13:45;;;;;;;9.15;2.67;;;22.30;57.10;;;;;;4952784;29;20081;-75
2022/04/25 03:16:11;;;;;;;4.82;2.50;;;22.30;57.00;;;;;;4950436;28;20047;-75
2022/04/25 03:18:37;;;;;;;7.55;2.72;;;22.30;57.10;;;;;;4953460;29;20035;-75
2022/04/25 03:21:03;;;;;;;6.35;2.80;;;22.30;56.90;;;;;;4950250;29;20031;-75
2022/04/25 03:23:29;;;;;;;8.57;2.60;;;22.30;57.00;;;;;;4952068;29;20595;-75
2022/04/25 03:25:55;;;;;;;6.53;2.50;;;22.30;56.80;;;;;;4953414;28;20023;-75
2022/04/25 03:28:21;;;;;;;6.47;2.78;;;22.30;57.10;;;;;;4953430;28;20098;-75
2022/04/25 03:30:47;;;;;;;6.53;2.70;;;22.30;56.90;;;;;;4951034;29;20078;-75
2022/04/25 03:33:13;;;;;;;5.55;2.35;;;22.30;57.00;;;;;;4949265;28;20035;-75
2022/04/25 03:35:40;;;;;;;5.88;2.30;;;22.30;56.80;;;;;;4953264;28;20502;-75
2022/04/25 03:38:07;;;;;;;5.90;2.95;;;22.30;56.70;;;;;;4953510;28;20031;-75
2022/04/25 03:40:37;;;;;;;6.07;2.45;;;22.30;56.80;;;;;;4953377;28;20035;-75
2022/04/25 03:43:06;;;;;;;6.20;2.80;;;22.30;56.60;;;;;;4952970;28;20114;-75
2022/04/25 03:45:33;;;;;;;4.68;2.13;;;22.30;56.60;;;;;;4947945;28;20506;-75
2022/04/25 03:47:59;;;;;;;6.55;2.53;;;22.30;56.60;;;;;;4947836;28;20054;-75
2022/04/25 03:50:25;;;;;;;7.78;2.75;;;22.30;56.70;;;;;;4952907;29;20031;-75
2022/04/25 03:52:51;;;;;;;6.40;2.55;;;22.30;56.80;;;;;;4951752;28;20033;-75
2022/04/25 03:58:06;;;;;;;6.80;2.67;;;22.30;56.60;;;;;;4946703;29;20415;-75
2022/04/25 04:00:34;;;;;;;8.10;3.08;;;22.30;56.60;;;;;;4950734;28;20030;-75
2022/04/25 04:03:00;;;;;;;6.05;2.70;;;22.20;56.70;;;;;;4944589;29;20035;-76
2022/04/25 04:05:27;;;;;;;5.53;2.47;;;22.20;56.50;;;;;;4947141;28;20407;-76
2022/04/25 04:07:53;;;;;;;6.20;2.63;;;22.30;56.40;;;;;;4948151;29;20396;-76
2022/04/25 04:10:20;;;;;;;4.15;2.25;;;22.30;56.60;;;;;;4935778;29;20055;-76
2022/04/25 04:12:46;;;;;;;6.07;2.75;;;22.30;56.60;;;;;;4935674;29;20089;-76
2022/04/25 04:15:13;;;;;;;6.78;2.65;;;22.20;56.80;;;;;;4953044;28;20480;-76
2022/04/25 04:17:39;;;;;;;5.13;2.30;;;22.20;56.40;;;;;;4947991;28;20027;-76
2022/04/25 04:20:06;;;;;;;4.85;2.22;;;22.20;56.50;;;;;;4952846;28;20610;-76
2022/04/25 04:22:33;;;;;;;7.60;2.50;;;22.20;56.30;;;;;;4952834;28;20037;-76
2022/04/25 04:25:05;;;;;;;5.82;2.38;;;22.20;56.50;;;;;;4952534;29;20034;-76
2022/04/25 04:27:33;;;;;;;6.57;2.95;;;22.20;56.40;;;;;;4951288;28;20188;-76
2022/04/25 04:30:01;;;;;;;4.63;2.63;;;22.20;56.50;;;;;;4950227;28;20023;-76
2022/04/25 04:32:30;;;;;;;5.32;2.60;;;22.30;56.40;;;;;;4931707;29;20043;-76
2022/04/25 04:34:57;;;;;;;4.83;2.63;;;22.20;56.70;;;;;;4951605;29;20423;-76
2022/04/25 04:37:26;;;;;;;4.38;2.38;;;22.30;56.90;;;;;;4953005;28;20027;-77
2022/04/25 04:42:37;;;;;;;6.57;2.70;;;22.20;56.60;;;;;;4941581;28;20167;-75
2022/04/25 04:45:04;;;;;;;5.68;2.95;;;22.30;56.80;;;;;;4935340;29;20038;-76
2022/04/25 04:47:36;;;;;;;5.85;2.58;;;22.30;56.70;;;;;;4950692;29;20400;-76
2022/04/25 04:50:06;;;;;;;5.85;2.65;;;22.30;56.80;;;;;;4951560;29;20102;-77
2022/04/25 04:52:32;;;;;;;5.97;2.67;;;22.20;56.50;;;;;;4946202;29;20031;-77
2022/04/25 04:54:58;;;;;;;4.63;2.75;;;22.30;56.40;;;;;;4951780;29;20024;-77
2022/04/25 04:57:24;;;;;;;6.68;3.08;;;22.30;56.70;;;;;;4951313;29;20031;-76
2022/04/25 04:59:50;;;;;;;6.00;3.08;;;22.20;56.70;;;;;;4953114;28;20031;-76
2022/04/25 05:02:16;;;;;;;5.13;3.00;;;22.20;56.30;;;;;;4931328;28;20039;-75
2022/04/25 05:04:45;;;;;;;6.05;3.28;;;22.20;56.70;;;;;;4955496;28;20031;-75
2022/04/25 05:07:11;;;;;;;4.07;2.45;;;22.30;56.40;;;;;;4954622;29;20377;-74
2022/04/25 05:09:36;;;;;;;5.15;2.50;;;22.20;56.30;;;;;;4950154;28;20028;-74
2022/04/25 05:12:02;;;;;;;4.72;2.60;;;22.20;57.10;;;;;;4951078;28;20126;-75
2022/04/25 05:14:28;;;;;;;7.30;3.30;;;22.20;56.40;;;;;;4951321;28;20024;-75
2022/04/25 05:16:54;;;;;;;4.60;2.83;;;22.20;56.60;;;;;;4952797;28;20034;-74
2022/04/25 05:19:20;;;;;;;4.18;2.67;;;22.20;56.00;;;;;;4953663;28;20078;-75
2022/04/25 05:21:47;;;;;;;4.80;2.90;;;22.20;56.50;;;;;;4926677;29;20106;-75
2022/04/25 05:24:12;;;;;;;6.88;3.10;;;22.20;56.20;;;;;;4952726;29;20031;-75
2022/04/25 05:26:38;;;;;;;7.13;2.90;;;22.20;56.10;;;;;;4954217;29;20043;-75
2022/04/25 05:29:04;;;;;;;5.35;2.65;;;22.20;55.70;;;;;;4955492;28;20023;-75
2022/04/25 05:31:29;;;;;;;5.32;2.92;;;22.20;56.60;;;;;;4954004;28;20028;-75
2022/04/25 05:33:55;;;;;;;4.32;2.60;;;22.20;56.20;;;;;;4954227;28;20392;-74
2022/04/25 05:36:21;;;;;;;5.53;2.67;;;22.20;56.00;;;;;;4954226;28;20031;-76
2022/04/25 05:38:46;;;;;;;6.47;3.10;;;22.20;56.40;;;;;;4955019;28;20023;-75
2022/04/25 05:41:12;;;;;;;5.88;2.70;;;22.20;56.20;;;;;;4950528;28;20039;-74
2022/04/25 05:43:39;;;;;;;8.32;3.13;;;22.20;56.30;;;;;;4954425;28;20038;-75
2022/04/25 05:46:05;;;;;;;4.70;2.75;;;22.20;56.70;;;;;;4954155;29;20027;-74
2022/04/25 05:54:00;;;;;;;5.18;2.78;;;22.20;56.60;;;;;;4943806;29;20028;-75
2022/04/25 05:56:26;;;;;;;6.72;3.20;;;22.20;56.50;;;;;;4953287;28;20024;-75
2022/04/25 05:58:52;;;;;;;6.25;2.63;;;22.20;56.40;;;;;;4954732;29;20034;-75
2022/04/25 06:01:17;;;;;;;7.35;2.78;;;22.30;56.50;;;;;;4954827;28;20399;-75
2022/04/25 06:03:43;;;;;;;4.88;3.00;;;22.20;56.00;;;;;;4945119;29;20046;-75
2022/04/25 06:06:09;;;;;;;7.82;3.20;;;22.20;56.70;;;;;;4953369;29;20065;-75
2022/04/25 06:08:36;;;;;;;6.32;3.00;;;22.20;57.10;;;;;;4954422;28;20117;-74
2022/04/25 06:11:02;;;;;;;7.57;3.30;;;22.20;56.10;;;;;;4948455;29;20042;-75
2022/04/25 06:13:28;;;;;;;6.15;2.80;;;22.20;56.80;;;;;;4945303;28;20031;-75
2022/04/25 06:15:54;;;;;;;6.20;3.13;;;22.20;56.20;;;;;;4949945;28;20050;-75
2022/04/25 06:18:22;;;;;;;5.32;2.40;;;22.20;55.80;;;;;;4948862;29;20484;-75
2022/04/25 06:20:50;;;;;;;5.63;2.70;;;22.20;55.60;;;;;;4952582;29;20113;-75
2022/04/25 06:24:01;;;;;;;4.78;2.65;;;22.20;56.00;;;;;;4950584;28;20034;-75
2022/04/25 06:26:34;;;;;;;5.80;2.83;;;22.20;55.80;;;;;;4879558;29;20123;-74
2022/04/25 06:29:00;;;;;;;7.18;2.63;;;22.20;56.50;;;;;;4948073;29;20030;-75
2022/04/25 06:31:26;;;;;;;7.45;2.80;;;22.20;56.40;;;;;;4953067;29;20058;-75
2022/04/25 06:33:51;;;;;;;7.20;2.83;;;22.20;56.10;;;;;;4948700;29;20031;-74
2022/04/25 06:36:17;;;;;;;7.10;3.08;;;22.20;56.50;;;;;;4949555;29;20034;-75
2022/04/25 06:38:43;;;;;;;6.00;2.70;;;22.20;55.90;;;;;;4952668;29;20027;-75
2022/04/25 06:41:09;;;;;;;6.90;3.10;;;22.20;56.40;;;;;;4954411;28;20510;-75
2022/04/25 06:43:36;;;;;;;6.13;2.75;;;22.20;57.00;;;;;;4936380;29;20031;-75
2022/04/25 06:46:03;;;;;;;8.25;2.90;;;22.20;56.60;;;;;;4948813;28;20082;-75
2022/04/25 06:48:29;;;;;;;5.65;2.85;;;22.20;56.50;;;;;;4952997;28;20031;-75
2022/04/25 06:50:55;;;;;;;4.68;2.60;;;22.20;56.70;;;;;;4937116;29;20027;-75
2022/04/25 06:53:21;;;;;;;4.72;2.95;;;22.20;56.30;;;;;;4951330;29;20042;-75
2022/04/25 06:55:47;;;;;;;3.83;2.80;;;22.20;56.80;;;;;;4941440;29;20089;-75
2022/04/25 06:58:13;;;;;;;6.45;2.85;;;22.20;56.30;;;;;;4952689;29;20055;-75
2022/04/25 07:00:38;;;;;;;5.22;2.72;;;22.20;56.40;;;;;;4951126;29;20045;-75
2022/04/25 07:03:05;;;;;;;6.30;2.90;;;22.20;56.50;;;;;;4947408;29;20567;-75
2022/04/25 07:05:31;;;;;;;3.92;2.55;;;22.20;56.90;;;;;;4951709;28;20023;-75
2022/04/25 07:07:57;;;;;;;7.88;2.83;;;22.20;56.40;;;;;;4953746;29;20038;-75
2022/04/25 07:10:22;;;;;;;4.90;2.80;;;22.20;56.10;;;;;;4953464;28;20031;-75
2022/04/25 07:12:48;;;;;;;4.57;2.70;;;22.20;56.50;;;;;;4953457;28;20031;-75
2022/04/25 07:15:14;;;;;;;5.60;2.97;;;22.20;56.70;;;;;;4934777;29;20031;-75
2022/04/25 07:17:40;;;;;;;4.15;2.63;;;22.20;56.80;;;;;;4951814;29;20027;-75
2022/04/25 07:20:06;;;;;;;5.35;2.97;;;22.20;56.70;;;;;;4950716;28;20027;-75
2022/04/25 07:30:45;;;;;;;8.00;3.20;;;22.20;56.80;;;;;;4952852;29;20602;-75
2022/04/25 07:33:11;;;;;;;6.38;2.80;;;22.20;57.00;;;;;;4951753;29;20102;-75
2022/04/25 07:35:39;;;;;;;6.93;2.92;;;22.20;56.60;;;;;;4951473;28;20031;-75
2022/04/25 07:38:05;;;;;;;5.50;2.67;;;22.20;56.60;;;;;;4953246;28;20534;-75
2022/04/25 07:40:31;;;;;;;5.10;2.88;;;22.20;56.70;;;;;;4950416;29;20110;-75
2022/04/25 07:42:57;;;;;;;6.10;3.17;;;22.20;56.50;;;;;;4943738;29;20122;-75
2022/04/25 07:45:23;;;;;;;9.20;3.28;;;22.20;56.80;;;;;;4948654;29;20361;-75
2022/04/25 07:47:49;;;;;;;5.18;2.70;;;22.20;57.00;;;;;;4945191;29;20032;-75
2022/04/25 07:50:16;;;;;;;5.20;3.17;;;22.20;56.70;;;;;;4951801;29;20027;-76
2022/04/25 07:52:42;;;;;;;5.65;3.10;;;22.20;56.70;;;;;;4952836;28;20031;-75
2022/04/25 07:55:08;;;;;;;9.02;3.17;;;22.20;56.80;;;;;;4949809;28;20028;-76
2022/04/25 07:57:35;;;;;;;7.60;3.17;;;22.20;57.00;;;;;;4945299;29;20500;-75
2022/04/25 08:00:04;;;;;;;4.90;2.90;;;22.20;57.10;;;;;;4952331;28;20030;-76
2022/04/25 08:02:32;;;;;;;4.88;2.95;;;22.20;56.40;;;;;;4952968;28;20042;-75
2022/04/25 08:04:58;;;;;;;4.60;2.63;;;22.20;56.80;;;;;;4948717;28;20028;-75
2022/04/25 08:07:24;;;;;;;5.15;2.70;;;22.20;56.90;;;;;;4950869;29;20031;-75
2022/04/25 08:09:49;;;;;;;5.90;2.90;;;22.20;57.00;;;;;;4950026;29;20476;-76
2022/04/25 08:18:06;;;;;;;4.45;2.30;;;22.20;56.80;;;;;;4952903;28;20019;-75
2022/04/25 08:20:37;;;;;;;5.15;2.60;;;22.20;56.00;;;;;;4954617;28;20031;-75
2022/04/25 08:23:05;;;;;;;4.43;2.50;;;22.20;56.80;;;;;;4952107;28;20451;-74
2022/04/25 08:25:31;;;;;;;3.50;2.40;;;22.20;57.00;;;;;;4949431;28;20554;-75
2022/04/25 08:27:58;;;;;;;5.22;2.88;;;22.20;56.80;;;;;;4945328;29;20399;-75
2022/04/25 08:30:24;;;;;;;5.45;2.78;;;22.20;57.00;;;;;;4943139;28;20120;-75
2022/04/25 08:32:51;;;;;;;4.07;2.60;;;22.20;56.50;;;;;;4952284;28;20035;-75
2022/04/25 08:35:17;;;;;;;5.20;3.05;;;22.20;56.60;;;;;;4932927;29;20186;-74
2022/04/25 08:37:43;;;;;;;5.20;2.70;;;22.20;56.90;;;;;;4950961;28;20118;-75
2022/04/25 08:40:10;;;;;;;6.10;2.83;;;22.20;57.10;;;;;;4935343;29;20043;-75
2022/04/25 08:42:36;;;;;;;5.50;2.85;;;22.20;57.30;;;;;;4955235;28;20122;-74
2022/04/25 08:45:05;;;;;;;4.50;2.75;;;22.20;56.80;;;;;;4954068;29;20118;-74
2022/04/25 08:47:35;;;;;;;6.38;2.92;;;22.20;56.70;;;;;;4953865;29;20024;-75
2022/04/25 08:50:01;;;;;;;5.15;3.10;;;22.20;56.90;;;;;;4952584;29;20034;-74
2022/04/25 08:52:28;;;;;;;4.82;2.60;;;22.20;57.20;;;;;;4954585;29;20547;-74
2022/04/25 08:54:58;;;;;;;6.25;2.72;;;22.30;57.10;;;;;;4953193;28;20445;-75
2022/04/25 08:57:27;;;;;;;5.65;2.72;;;22.30;57.00;;;;;;4950456;29;20042;-74
2022/04/25 08:59:55;;;;;;;6.65;2.83;;;22.30;57.20;;;;;;4954622;29;20541;-74
2022/04/25 09:02:22;;;;;;;10.57;3.05;;;22.30;57.40;;;;;;4955850;28;20034;-75
2022/04/25 09:04:50;;;;;;;5.28;2.65;;;22.20;57.30;;;;;;4947808;29;20023;-75
2022/04/25 09:07:19;;;;;;;7.68;2.88;;;22.30;57.50;;;;;;4950389;29;20054;-76
2022/04/25 09:09:45;;;;;;;4.80;2.73;;;22.30;57.50;;;;;;4954751;28;20062;-76
2022/04/25 09:12:14;;;;;;;8.35;2.85;;;22.30;57.70;;;;;;4950158;28;20031;-75
2022/04/25 09:14:42;;;;;;;5.63;2.85;;;22.20;57.90;;;;;;4939058;29;20075;-76
2022/04/25 09:17:09;;;;;;;4.07;2.83;;;22.30;57.70;;;;;;4935176;29;20032;-76
2022/04/25 09:19:38;;;;;;;6.72;2.88;;;22.30;57.90;;;;;;4935507;29;20028;-76
2022/04/25 09:22:05;;;;;;;6.97;2.92;;;22.30;58.10;;;;;;4945112;29;20041;-76
2022/04/25 09:24:33;;;;;;;6.35;3.00;;;22.20;57.60;;;;;;4948604;29;20031;-76
2022/04/25 09:27:12;;;;;;;8.23;2.80;;;22.20;58.20;;;;;;4952743;28;20031;-76
2022/04/25 09:29:40;;;;;;;8.45;2.90;;;22.30;57.90;;;;;;4953127;29;20035;-76
2022/04/25 09:32:09;;;;;;;5.38;2.83;;;22.20;58.10;;;;;;4949800;29;20038;-75
2022/04/25 09:37:48;;;;;;;9.70;3.00;;;22.20;58.30;;;;;;4954997;28;20027;-76
2022/04/25 09:40:19;;;;;;;10.60;2.97;;;22.30;58.30;;;;;;4949965;28;20019;-77
2022/04/25 09:42:46;;;;;;;15.73;3.17;;;22.20;58.20;;;;;;4946776;28;20039;-75
2022/04/25 09:45:12;;;;;;;7.63;3.22;;;22.30;58.40;;;;;;4955270;28;20063;-75
2022/04/25 09:47:38;;;;;;;7.15;2.75;;;22.30;58.40;;;;;;4949631;29;20078;-76
2022/04/25 09:50:14;;;;;;;7.97;2.60;;;22.30;58.30;;;;;;4950901;28;20038;-76
2022/04/25 09:52:55;;;;;;;8.20;2.92;;;22.30;58.20;;;;;;4936874;29;20114;-76
2022/04/25 09:55:27;;;;;;;8.40;2.55;;;22.30;58.20;;;;;;4946218;29;20516;-76
2022/04/25 09:57:54;;;;;;;6.47;2.95;;;22.30;58.20;;;;;;4950815;29;20031;-76
2022/04/25 10:00:36;;;;;;;7.70;2.83;;;22.30;58.10;;;;;;4949442;29;20504;-75
2022/04/25 10:03:03;;;;;;;7.65;2.85;;;22.30;58.20;;;;;;4937428;29;20034;-76
2022/04/25 10:05:51;;;;;;;6.38;3.25;;;22.20;57.80;;;;;;4954085;29;20038;-76
2022/04/25 10:08:18;;;;;;;6.22;2.67;;;22.30;58.00;;;;;;4948959;28;20031;-75
2022/04/25 10:10:57;;;;;;;5.65;2.50;;;22.30;57.90;;;;;;4949488;28;20083;-75
2022/04/25 10:13:25;;;;;;;6.43;2.88;;;22.30;58.20;;;;;;4945059;29;20039;-75
2022/04/25 10:15:50;;;;;;;6.43;2.80;;;22.30;58.30;;;;;;4934759;29;20028;-75
2022/04/25 10:18:17;;;;;;;10.80;3.47;;;22.30;58.30;;;;;;4946845;29;20086;-76
2022/04/25 10:20:45;;;;;;;7.05;3.42;;;22.40;58.80;;;;;;4945927;29;20038;-76
2022/04/25 10:23:12;;;;;;;6.93;3.03;;;22.40;58.40;;;;;;4952912;29;20039;-75
2022/04/25 10:25:43;;;;;;;14.30;3.67;;;22.40;58.30;;;;;;4954014;28;20042;-76
2022/04/25 10:28:33;;;;;;;10.48;3.92;;;22.40;58.70;;;;;;4954584;29;20031;-77
2022/04/25 10:31:03;;;;;;;10.40;3.25;;;22.40;58.50;;;;;;4933957;29;20481;-72
2022/04/25 10:33:51;;;;;;;12.63;3.58;;;22.40;58.70;;;;;;4933500;29;20028;-75
2022/04/25 10:36:39;;;;;;;22.60;3.55;;;22.40;58.80;;;;;;4949923;29;20039;-76
2022/04/25 10:39:17;;;;;;;10.25;3.63;;;22.40;58.70;;;;;;4934759;29;20036;-74
2022/04/25 10:44:45;;;;;;;9.63;3.25;;;22.40;58.40;;;;;;4936274;29;20044;-75
2022/04/25 10:47:23;;;;;;;11.52;3.47;;;22.30;58.20;;;;;;4934305;29;20397;-75
2022/04/25 10:49:52;;;;;;;8.43;2.97;;;22.40;58.30;;;;;;4918167;29;20083;-75
2022/04/25 10:52:53;;;;;;;6.40;3.13;;;22.30;58.20;;;;;;4933401;29;20032;-75
2022/04/25 10:55:33;;;;;;;8.38;3.03;;;22.30;55.80;;;;;;4934256;29;20031;-76
2022/04/25 10:58:07;;;;;;;8.23;2.83;;;22.20;54.80;;;;;;4938829;29;20403;-75
2022/04/25 11:00:39;;;;;;;14.32;3.13;;;22.20;55.20;;;;;;4946358;29;20035;-76
2022/04/25 11:03:13;;;;;;;9.48;3.30;;;22.20;55.70;;;;;;4953073;28;20094;-76
2022/04/25 11:05:43;;;;;;;9.73;3.30;;;22.20;56.10;;;;;;4953810;28;20027;-76
2022/04/25 11:08:24;;;;;;;10.63;3.08;;;22.30;55.70;;;;;;4952512;29;20476;-75
2022/04/25 11:11:05;;;;;;;9.32;2.78;;;22.20;55.30;;;;;;4950480;29;20034;-72
2022/04/25 11:13:57;;;;;;;8.38;2.85;;;22.20;55.30;;;;;;4953296;28;20043;-73
2022/04/25 11:16:26;;;;;;;14.02;3.28;;;22.20;53.50;;;;;;4953607;28;20059;-74
2022/04/25 11:19:09;;;;;;;6.53;2.83;;;22.20;52.10;;;;;;4947964;29;20027;-75
2022/04/25 11:21:40;;;;;;;7.05;2.92;;;22.20;53.40;;;;;;4950180;29;20094;-75
2022/04/25 11:24:28;;;;;;;15.48;2.92;;;22.20;54.20;;;;;;4942460;29;20030;-76
2022/04/25 11:26:59;;;;;;;8.82;2.90;;;22.30;54.10;;;;;;4933209;29;20032;-76
2022/04/25 11:29:25;;;;;;;15.15;2.70;;;22.30;54.20;;;;;;4948382;29;20051;-73
2022/04/25 11:31:51;;;;;;;11.80;2.90;;;22.30;53.30;;;;;;4953255;28;20059;-75
2022/04/25 11:34:21;;;;;;;14.80;2.70;;;22.30;53.70;;;;;;4952869;28;20036;-74
2022/04/25 11:36:46;;;;;;;;;;;22.30;54.10;;;;;;4952667;28;20039;-75
2022/04/25 11:42:01;;;;;;;9.30;2.60;;;22.30;54.20;;;;;;4953241;28;20444;-75
2022/04/25 11:44:27;;;;;;;9.75;2.72;;;22.30;54.60;;;;;;4952714;28;20386;-75
2022/04/25 11:46:53;;;;;;;9.80;2.58;;;22.30;54.60;;;;;;4941033;28;20102;-73
2022/04/25 11:49:38;;;;;;;6.40;2.90;;;22.30;54.20;;;;;;4942674;29;20445;-73
2022/04/25 11:52:05;;;;;;;8.88;2.50;;;22.30;54.30;;;;;;4933895;29;20023;-77
2022/04/25 11:54:32;;;;;;;10.85;2.85;;;22.30;54.30;;;;;;4946245;29;20083;-76
2022/04/25 11:57:00;;;;;;;13.65;2.90;;;22.30;54.40;;;;;;4936154;29;20038;-75
2022/04/25 11:59:41;;;;;;;8.15;2.78;;;22.30;54.60;;;;;;4935857;29;20054;-75
2022/04/25 12:02:13;;;;;;;9.00;2.63;;;22.30;54.60;;;;;;4933031;29;20039;-76
2022/04/25 12:04:41;;;;;;;9.20;2.97;;;22.30;54.80;;;;;;4932170;28;20046;-76
2022/04/25 12:07:11;;;;;;;10.98;2.80;;;22.40;54.80;;;;;;4951543;29;20039;-76
2022/04/25 12:15:35;;;;;;;11.18;2.55;;;22.30;54.90;;;;;;4956044;29;20047;-76
2022/04/25 12:18:26;;;;;;;5.53;2.40;;;22.40;55.00;;;;;;4920419;29;20517;-76
2022/04/25 12:21:00;;;;;;;7.65;2.58;;;22.40;55.10;;;;;;4933733;29;20036;-75
2022/04/25 12:23:28;;;;;;;13.15;2.78;;;22.40;55.30;;;;;;4953327;29;20078;-72
2022/04/25 12:25:55;;;;;;;10.60;2.42;;;22.40;55.10;;;;;;4955350;29;20035;-75
2022/04/25 12:28:23;;;;;;;12.18;2.90;;;22.40;55.00;;;;;;4956448;28;20403;-75
2022/04/25 12:31:03;;;;;;;6.80;2.67;;;22.40;55.30;;;;;;4952143;29;20038;-75
2022/04/25 12:33:40;;;;;;;17.30;3.13;;;22.40;55.50;;;;;;4955088;29;20054;-74
2022/04/25 12:36:07;;;;;;;13.75;3.45;;;22.50;55.70;;;;;;4954243;28;20056;-66
2022/04/25 12:38:41;;;;;;;12.45;3.20;;;22.50;56.30;;;;;;4938924;28;20039;-75
2022/04/25 12:41:09;;;;;;;12.85;3.65;;;22.50;56.50;;;;;;4939122;29;20046;-75
2022/04/25 12:43:34;;;;;;;15.63;4.05;;;22.50;55.00;;;;;;4955697;29;20469;-75
2022/04/25 12:46:00;;;;;;;9.50;3.53;;;22.40;54.60;;;;;;4945648;28;20056;-76
2022/04/25 12:48:26;;;;;;;12.30;3.15;;;22.40;54.70;;;;;;4935762;29;20044;-76
2022/04/25 12:50:52;;;;;;;11.23;3.20;;;22.40;55.20;;;;;;4936077;29;20102;-75
2022/04/25 12:53:38;;;;;;;17.20;3.58;;;22.40;55.50;;;;;;4941179;29;20082;-75
2022/04/25 12:56:05;;;;;;;9.07;3.42;;;22.40;54.90;;;;;;4955300;29;20031;-73
2022/04/25 12:58:47;;;;;;;8.75;2.80;;;22.40;55.60;;;;;;4906284;29;20074;-74
2022/04/25 13:01:28;;;;;;;16.05;2.97;;;22.40;55.30;;;;;;4937123;29;20028;-74
2022/04/25 13:04:11;;;;;;;11.65;2.95;;;22.40;55.30;;;;;;4922934;29;20034;-74
2022/04/25 13:06:37;;;;;;;16.00;3.25;;;22.40;55.50;;;;;;4954215;29;20402;-74
2022/04/25 13:09:04;;;;;;;18.15;3.22;;;22.40;55.40;;;;;;4953588;28;20106;-74
2022/04/25 13:11:30;;;;;;;9.73;3.00;;;22.40;55.60;;;;;;4954887;29;20035;-75
2022/04/25 13:13:57;;;;;;;13.18;3.17;;;22.40;55.60;;;;;;4955347;28;20023;-74
2022/04/25 13:16:24;;;;;;;7.55;2.78;;;22.40;55.80;;;;;;4955933;28;20117;-74
2022/04/25 13:18:50;;;;;;;12.85;3.05;;;22.40;55.80;;;;;;4949316;28;20118;-75
2022/04/25 13:21:17;;;;;;;13.43;3.00;;;22.40;56.10;;;;;;4954464;29;20111;-74
2022/04/25 13:23:42;;;;;;;16.35;3.00;;;22.40;56.00;;;;;;4951228;28;20519;-73
2022/04/25 13:26:09;;;;;;;17.35;3.00;;;22.40;55.70;;;;;;4954525;29;20051;-74
2022/04/25 13:28:35;;;;;;;17.15;3.55;;;22.40;56.30;;;;;;4930368;29;20100;-74
2022/04/25 13:31:02;;;;;;;11.88;3.10;;;22.40;56.40;;;;;;4949766;28;20484;-74
2022/04/25 13:33:27;;;;;;;14.52;3.08;;;22.40;56.30;;;;;;4951289;29;20035;-74
2022/04/25 13:35:53;;;;;;;15.05;3.42;;;22.40;56.60;;;;;;4954433;29;20054;-74
2022/04/25 13:38:20;;;;;;;9.80;3.00;;;22.40;56.70;;;;;;4938258;29;20086;-74